Santa Barbara Municipal Airport
KSBA : now visible

Airfield :











YOU CAN JOIN US ON...

 
LOGIN :

Register | Disclaimer

   EN    FR    IT 

 









Legend :    VFR   Marginal VFR   IFR   Intensive IFR   Very Intensive IFR
Visi :
Ceiling :
>= 8 km
>= 3000ft
5 to 8 km
1000 to 3000 ft
1500m to 5 km
500 to 1000 ft
800 to 1500m
200 to 500 ft
< 800m
< 200 ft
Symbols :   Thunderstorms  Fog  Heavy snow  Heavy precipitations  Wind > 20 kt






- Airport Elevation : 13 ft
- IATA code : SBA


KSBA - Santa Barbara Municipal

CURRENT METAR :
  • 222253Z 26014KT 10SM CLR 21/14 A2993 RMK AO2 SLP136 T02060139 $

EXPIRED METARs :
  • 222153Z 26016KT 10SM CLR 21/13 A2993 RMK AO2 SLP136 T02110133 $
  • 222053Z 25013G20KT 10SM CLR 21/14 A2993 RMK AO2 SLP135 T02060139 55003 $

TAF KSBA
Valid from the 23 at 00:00 until the 24 at 00:00 UTC


222336Z 2300/2324 26016KT P6SM SKC
FM230300 26006KT P6SM SKC
FM230800 VRB03KT P6SM OVC008
FM231600 VRB03KT P6SM SKC
FM232000 25015KT P6SM SKC
KZLA FIR / North America



MET'MAP, your aeronautical weather chart ! - Copyright ORBIFLY December 2007 - Disclaimer

ORBIFLY MET'MAP TEAM :

Programming & Development : Alexandra Zaïnal
Concept & original design : Baudouin d'Aumeries
Assistance for programming : Marc-Olivier Méhu
Technical & hardware support : Manuel Goepfert

Contact : metmap@orbifly.com




SOURCES & CREDITS :

   NOAA       Earth
Advisory